createdAt,value
2017-07-22T00:02:12.191Z,65.60
2017-07-22T00:04:39.645Z,65.80
2017-07-22T00:07:07.908Z,65.90
2017-07-22T00:09:35.473Z,65.90
2017-07-22T00:12:03.024Z,66.20
2017-07-22T00:14:30.483Z,66.80
2017-07-22T00:16:58.033Z,66.90
2017-07-22T00:19:25.497Z,66.50
2017-07-22T00:21:53.058Z,66.70
2017-07-22T00:24:20.618Z,66.80
2017-07-22T00:26:48.178Z,67.10
2017-07-22T00:29:15.634Z,67.20
2017-07-22T00:31:43.192Z,67.20
2017-07-22T00:34:10.751Z,67.20
2017-07-22T00:36:38.310Z,67.60
2017-07-22T00:39:05.874Z,67.50
2017-07-22T00:41:33.420Z,67.30
2017-07-22T00:44:00.872Z,67.50
2017-07-22T00:46:28.350Z,67.30
2017-07-22T00:48:55.898Z,67.40
2017-07-22T00:51:23.350Z,67.20
2017-07-22T00:53:50.816Z,67.30
2017-07-22T00:56:18.361Z,67.30
2017-07-22T00:58:45.829Z,67.90
2017-07-22T01:01:13.377Z,67.80
2017-07-22T01:03:40.959Z,68.00
2017-07-22T01:06:09.177Z,68.00
2017-07-22T01:08:36.646Z,67.80
2017-07-22T01:11:04.109Z,67.90
2017-07-22T01:13:31.599Z,68.10
2017-07-22T01:15:59.863Z,68.10
2017-07-22T01:18:27.336Z,68.00
2017-07-22T01:20:55.553Z,68.30
2017-07-22T01:23:23.053Z,68.30
2017-07-22T01:25:50.596Z,68.30
2017-07-22T01:28:18.157Z,68.10
2017-07-22T01:30:45.726Z,68.20
2017-07-22T01:33:13.182Z,68.30
2017-07-22T01:35:40.728Z,68.10
2017-07-22T01:38:08.190Z,68.10
2017-07-22T01:40:35.662Z,68.50
2017-07-22T01:43:03.112Z,68.80
2017-07-22T01:45:30.665Z,68.80
2017-07-22T01:47:58.217Z,68.60
2017-07-22T01:50:25.685Z,68.90
2017-07-22T01:52:53.244Z,68.80
2017-07-22T01:55:20.802Z,68.80
2017-07-22T01:57:48.362Z,68.50
2017-07-22T02:00:15.918Z,68.70
2017-07-22T02:02:43.477Z,68.60
2017-07-22T02:05:10.945Z,68.50
2017-07-22T02:07:39.209Z,68.50
2017-07-22T02:10:06.767Z,69.20
2017-07-22T02:12:35.010Z,68.50
2017-07-22T02:15:02.499Z,68.40
2017-07-22T02:17:29.980Z,68.60
2017-07-22T02:19:58.220Z,68.80
2017-07-22T02:22:25.776Z,68.60
2017-07-22T02:24:53.230Z,68.70
2017-07-22T02:27:20.697Z,68.80
2017-07-22T02:29:48.152Z,69.00
2017-07-22T02:32:15.704Z,69.20
2017-07-22T02:34:43.153Z,69.10
2017-07-22T02:37:10.620Z,69.20
2017-07-22T02:39:38.194Z,69.20
2017-07-22T02:42:05.642Z,69.60
2017-07-22T02:44:33.114Z,69.10
2017-07-22T02:47:00.663Z,69.00
2017-07-22T02:49:28.222Z,68.90
2017-07-22T02:51:55.788Z,68.80
2017-07-22T02:54:24.044Z,69.90
2017-07-22T02:56:51.496Z,68.90
2017-07-22T02:59:18.954Z,69.10
2017-07-22T03:01:46.404Z,69.10
2017-07-22T03:04:13.968Z,69.10
2017-07-22T03:06:41.430Z,69.00
2017-07-22T03:09:08.912Z,69.10
2017-07-22T03:11:37.156Z,69.30
2017-07-22T03:14:04.731Z,69.20
2017-07-22T03:16:32.295Z,69.20
2017-07-22T03:18:59.759Z,69.40
2017-07-22T03:21:28.004Z,69.10
2017-07-22T03:23:55.474Z,69.10
2017-07-22T03:26:22.956Z,69.20
2017-07-22T03:28:51.210Z,69.60
2017-07-22T03:31:18.770Z,69.40
2017-07-22T03:33:46.226Z,69.70
2017-07-22T03:36:13.682Z,69.70
2017-07-22T03:38:41.232Z,69.90
2017-07-22T03:41:08.687Z,69.90
2017-07-22T03:43:36.144Z,70.00
2017-07-22T03:46:03.696Z,70.00
2017-07-22T03:48:31.256Z,70.00
2017-07-22T03:50:58.741Z,70.10
2017-07-22T03:53:27.011Z,70.10
2017-07-22T03:55:55.235Z,70.00
2017-07-22T03:58:22.731Z,70.00
2017-07-22T04:00:50.276Z,69.90
2017-07-22T04:03:17.741Z,69.90
2017-07-22T04:05:45.206Z,70.00
2017-07-22T04:08:12.776Z,69.60
2017-07-22T04:10:41.036Z,69.50
2017-07-22T04:13:08.595Z,69.50
2017-07-22T04:15:36.039Z,69.80
2017-07-22T04:18:03.612Z,69.80
2017-07-22T04:20:31.057Z,69.70
2017-07-22T04:22:58.521Z,70.00
2017-07-22T04:25:26.083Z,70.00
2017-07-22T04:27:53.627Z,70.00
2017-07-22T04:30:21.086Z,69.60
2017-07-22T04:32:48.546Z,69.70
2017-07-22T04:35:16.114Z,69.40
2017-07-22T04:37:43.568Z,69.10
2017-07-22T04:40:11.129Z,68.70
2017-07-22T04:42:38.595Z,68.50
2017-07-22T04:45:06.048Z,68.80
2017-07-22T04:47:34.315Z,68.40
2017-07-22T04:50:01.871Z,68.60
2017-07-22T04:52:29.316Z,68.60
2017-07-22T04:54:56.891Z,68.70
2017-07-22T04:57:24.446Z,68.80
2017-07-22T04:59:52.006Z,69.00
2017-07-22T05:02:19.562Z,69.20
2017-07-22T05:04:47.043Z,69.10
2017-07-22T05:07:15.350Z,68.90
2017-07-22T05:09:42.815Z,68.90
2017-07-22T05:12:10.312Z,68.70
2017-07-22T05:14:37.791Z,68.60
2017-07-22T05:17:06.044Z,68.50
2017-07-22T05:19:33.593Z,68.50
2017-07-22T05:22:01.064Z,68.50
2017-07-22T05:24:28.623Z,68.20
2017-07-22T05:26:56.164Z,68.30
2017-07-22T05:29:23.724Z,67.80
2017-07-22T05:31:51.294Z,67.80
2017-07-22T05:34:18.850Z,68.00
2017-07-22T05:36:46.409Z,68.20
2017-07-22T05:39:13.973Z,68.10
2017-07-22T05:41:41.516Z,67.80
2017-07-22T05:44:09.089Z,67.70
2017-07-22T05:46:37.325Z,68.60
2017-07-22T05:49:04.805Z,67.60
2017-07-22T05:51:32.273Z,67.60
2017-07-22T05:53:59.742Z,67.70
2017-07-22T05:56:27.966Z,68.00
2017-07-22T05:58:55.466Z,67.40
2017-07-22T06:01:23.012Z,67.20
2017-07-22T06:03:50.577Z,66.80
2017-07-22T06:06:18.038Z,67.00
2017-07-22T06:08:45.590Z,66.90
2017-07-22T06:11:13.149Z,66.30
2017-07-22T06:13:40.709Z,65.90
2017-07-22T06:16:08.283Z,65.70
2017-07-22T06:18:35.837Z,65.40
2017-07-22T06:21:03.390Z,65.10
2017-07-22T06:23:30.884Z,64.80
2017-07-22T06:25:58.337Z,64.50
2017-07-22T06:28:25.785Z,64.30
2017-07-22T06:30:53.249Z,64.60
2017-07-22T06:33:20.770Z,64.50
2017-07-22T06:35:48.328Z,64.20
2017-07-22T06:38:15.785Z,64.10
2017-07-22T06:40:44.020Z,64.60
2017-07-22T06:43:11.526Z,64.60
2017-07-22T06:45:38.999Z,64.30
2017-07-22T06:48:07.236Z,64.20
2017-07-22T06:50:34.809Z,64.00
2017-07-22T06:53:02.373Z,64.10
2017-07-22T06:55:29.831Z,64.30
2017-07-22T06:57:58.058Z,63.30
2017-07-22T07:00:25.540Z,63.10
2017-07-22T07:02:53.000Z,63.10
2017-07-22T07:05:20.460Z,62.90
2017-07-22T07:07:48.031Z,62.60
2017-07-22T07:10:15.576Z,62.40
2017-07-22T07:12:43.053Z,62.00
2017-07-22T07:15:10.501Z,61.40
2017-07-22T07:17:38.758Z,61.70
2017-07-22T07:20:06.223Z,61.60
2017-07-22T07:22:33.703Z,61.40
2017-07-22T07:25:01.924Z,61.30
2017-07-22T07:27:29.385Z,61.10
2017-07-22T07:29:56.874Z,61.00
2017-07-22T07:32:24.350Z,60.60
2017-07-22T07:34:52.574Z,60.20
2017-07-22T07:37:20.046Z,60.10
2017-07-22T07:39:47.511Z,59.70
2017-07-22T07:42:15.082Z,59.80
2017-07-22T07:44:42.549Z,60.50
2017-07-22T07:47:10.823Z,60.20
2017-07-22T07:49:39.051Z,59.80
2017-07-22T07:52:06.538Z,59.80
2017-07-22T07:54:34.102Z,60.30
2017-07-22T07:57:01.648Z,59.60
2017-07-22T07:59:29.212Z,59.70
2017-07-22T08:01:56.774Z,60.00
2017-07-22T08:04:24.248Z,59.70
2017-07-22T08:06:52.496Z,60.40
2017-07-22T08:09:19.947Z,59.90
2017-07-22T08:11:47.405Z,59.90
2017-07-22T08:14:14.964Z,59.90
2017-07-22T08:16:42.431Z,59.60
2017-07-22T08:19:09.897Z,59.60
2017-07-22T08:21:37.348Z,59.30
2017-07-22T08:24:04.802Z,59.60
2017-07-22T08:26:32.359Z,59.10
2017-07-22T08:28:59.818Z,58.80
2017-07-22T08:31:27.376Z,58.90
2017-07-22T08:33:54.934Z,58.80
2017-07-22T08:36:22.412Z,58.70
2017-07-22T08:38:50.660Z,58.50
2017-07-22T08:41:18.125Z,59.00
2017-07-22T08:43:45.739Z,57.90
2017-07-22T08:46:13.256Z,58.00
2017-07-22T08:48:41.517Z,58.30
2017-07-22T08:51:09.084Z,58.00
2017-07-22T08:53:37.359Z,58.50
2017-07-22T08:56:04.905Z,58.10
2017-07-22T08:58:32.470Z,58.20
2017-07-22T09:01:00.026Z,58.20
2017-07-22T09:03:27.490Z,58.40
2017-07-22T09:05:54.950Z,58.30
2017-07-22T09:08:23.218Z,58.50
2017-07-22T09:10:50.670Z,57.90
2017-07-22T09:13:18.145Z,57.80
2017-07-22T09:15:46.365Z,58.20
2017-07-22T09:18:13.872Z,58.10
2017-07-22T09:20:42.127Z,57.80
2017-07-22T09:23:09.680Z,57.40
2017-07-22T09:25:37.155Z,57.30
2017-07-22T09:28:04.608Z,57.30
2017-07-22T09:30:32.060Z,57.20
2017-07-22T09:32:59.617Z,57.30
2017-07-22T09:35:27.192Z,56.40
2017-07-22T09:37:54.641Z,56.60
2017-07-22T09:40:22.194Z,56.70
2017-07-22T09:42:49.744Z,56.30
2017-07-22T09:45:17.310Z,56.40
2017-07-22T09:47:44.860Z,56.60
2017-07-22T09:50:12.330Z,56.40
2017-07-22T09:52:39.786Z,56.40
2017-07-22T09:55:07.254Z,56.50
2017-07-22T09:57:35.505Z,55.90
2017-07-22T10:00:03.073Z,55.90
2017-07-22T10:02:30.520Z,56.60
2017-07-22T10:04:58.042Z,56.70
2017-07-22T10:07:25.583Z,56.60
2017-07-22T10:09:53.104Z,56.40
2017-07-22T10:12:20.675Z,56.50
2017-07-22T10:14:48.120Z,56.10
2017-07-22T10:17:15.688Z,55.80
2017-07-22T10:19:43.228Z,55.60
2017-07-22T10:22:10.785Z,54.80
2017-07-22T10:24:38.240Z,54.40
2017-07-22T10:27:05.693Z,53.70
2017-07-22T10:29:33.167Z,53.80
2017-07-22T10:32:00.814Z,53.60
2017-07-22T10:34:28.339Z,53.70
2017-07-22T10:36:55.807Z,53.20
2017-07-22T10:39:23.265Z,52.90
2017-07-22T10:41:50.741Z,53.20
2017-07-22T10:44:18.205Z,52.80
2017-07-22T10:46:45.771Z,52.30
2017-07-22T10:49:13.325Z,52.60
2017-07-22T10:51:40.795Z,52.60
2017-07-22T10:54:09.031Z,51.80
2017-07-22T10:56:36.505Z,51.60
2017-07-22T10:59:04.061Z,51.00
2017-07-22T11:01:31.629Z,50.60
2017-07-22T11:03:59.179Z,50.40
2017-07-22T11:06:26.745Z,50.50
2017-07-22T11:08:54.224Z,50.40
2017-07-22T11:11:22.484Z,49.80
2017-07-22T11:13:50.029Z,49.80
2017-07-22T11:16:17.490Z,50.00
2017-07-22T11:18:45.057Z,49.80
2017-07-22T11:21:12.505Z,49.80
2017-07-22T11:23:39.960Z,49.70
2017-07-22T11:26:07.426Z,49.30
2017-07-22T11:28:34.982Z,48.30
2017-07-22T11:31:02.543Z,47.70
2017-07-22T11:33:30.002Z,48.40
2017-07-22T11:35:57.466Z,47.50
2017-07-22T11:38:25.703Z,47.70
2017-07-22T11:40:53.200Z,47.00
2017-07-22T11:43:21.427Z,46.90
2017-07-22T11:45:48.898Z,47.20
2017-07-22T11:48:16.368Z,47.50
2017-07-22T11:50:43.930Z,48.20
2017-07-22T11:53:11.382Z,47.80
2017-07-22T11:55:38.853Z,47.70
2017-07-22T11:58:06.300Z,47.80
2017-07-22T12:00:33.866Z,47.20
2017-07-22T12:03:01.418Z,47.50
2017-07-22T12:05:28.964Z,48.00
2017-07-22T12:07:56.429Z,47.30
2017-07-22T12:10:24.050Z,47.30
2017-07-22T12:12:51.540Z,48.20
2017-07-22T12:15:19.006Z,49.30
2017-07-22T12:17:46.566Z,49.60
2017-07-22T12:20:14.133Z,49.60
2017-07-22T12:22:41.682Z,50.60
2017-07-22T12:25:09.247Z,50.50
2017-07-22T12:27:36.818Z,50.80
2017-07-22T12:30:05.078Z,51.70
2017-07-22T12:32:32.550Z,51.60
2017-07-22T12:35:00.810Z,54.80
2017-07-22T12:37:28.266Z,54.70
2017-07-22T12:39:56.556Z,57.60
2017-07-22T12:42:24.819Z,58.40
2017-07-22T12:44:52.290Z,58.40
2017-07-22T12:47:20.564Z,62.00
2017-07-22T12:49:48.816Z,63.20
2017-07-22T12:52:16.291Z,63.10
2017-07-22T12:54:43.775Z,64.00
2017-07-22T12:57:11.298Z,65.40
2017-07-22T12:59:38.848Z,67.30
2017-07-22T13:02:06.311Z,67.10
2017-07-22T13:04:33.856Z,69.90
2017-07-22T13:07:01.425Z,70.70
2017-07-22T13:09:28.998Z,73.50
2017-07-22T13:11:56.548Z,74.20
2017-07-22T13:14:24.822Z,77.80
2017-07-22T13:16:52.393Z,77.60
2017-07-22T13:19:20.665Z,77.90
2017-07-22T13:21:48.901Z,78.60
2017-07-22T13:24:16.352Z,78.60
2017-07-22T13:26:43.858Z,79.60
2017-07-22T13:29:12.093Z,81.30
2017-07-22T13:31:39.572Z,80.40
2017-07-22T13:34:07.123Z,78.20
2017-07-22T13:36:34.593Z,78.70
2017-07-22T13:39:02.138Z,79.10
2017-07-22T13:41:29.601Z,77.90
2017-07-22T13:43:57.161Z,79.20
2017-07-22T13:46:24.627Z,76.30
2017-07-22T13:48:52.178Z,77.70
2017-07-22T13:51:19.628Z,76.60
2017-07-22T13:53:47.207Z,76.50
2017-07-22T13:56:15.473Z,77.20
2017-07-22T13:58:43.017Z,77.20
2017-07-22T14:01:10.473Z,79.00
2017-07-22T14:03:38.058Z,78.10
2017-07-22T14:06:06.285Z,77.80
2017-07-22T14:08:33.752Z,77.60
2017-07-22T14:11:01.239Z,77.50
2017-07-22T14:13:28.702Z,78.60
2017-07-22T14:15:56.956Z,77.80
2017-07-22T14:18:24.519Z,77.80
2017-07-22T14:20:52.091Z,79.10
2017-07-22T14:23:19.637Z,80.40
2017-07-22T14:25:47.094Z,78.80
2017-07-22T14:28:14.549Z,78.40
2017-07-22T14:30:42.825Z,77.20
2017-07-22T14:33:11.097Z,77.40
2017-07-22T14:35:38.649Z,77.50
2017-07-22T14:38:06.101Z,76.80
2017-07-22T14:40:33.578Z,75.50
2017-07-22T14:43:01.042Z,75.80
2017-07-22T14:45:29.298Z,77.40
2017-07-22T14:47:56.854Z,77.10
2017-07-22T14:50:24.422Z,76.90
2017-07-22T14:52:51.982Z,76.90
2017-07-22T14:55:19.459Z,77.50
2017-07-22T14:57:47.704Z,78.70
2017-07-22T15:00:15.165Z,78.60
2017-07-22T15:02:42.730Z,78.70
2017-07-22T15:05:10.286Z,78.40
2017-07-22T15:07:37.740Z,79.00
2017-07-22T15:10:05.289Z,79.50
2017-07-22T15:12:32.858Z,78.60
2017-07-22T15:15:00.343Z,78.80
2017-07-22T15:17:28.589Z,78.80
2017-07-22T15:19:56.141Z,78.80
2017-07-22T15:22:23.610Z,78.50
2017-07-22T15:24:51.060Z,78.50
2017-07-22T15:27:18.517Z,78.60
2017-07-22T15:29:46.077Z,78.70
2017-07-22T15:32:13.550Z,78.70
2017-07-22T15:34:41.781Z,79.00
2017-07-22T15:37:09.269Z,78.10
2017-07-22T15:39:36.728Z,78.30
2017-07-22T15:42:04.990Z,78.70
2017-07-22T15:44:32.445Z,78.60
2017-07-22T15:47:00.067Z,78.20
2017-07-22T15:49:27.570Z,78.40
2017-07-22T15:51:55.044Z,78.40
2017-07-22T15:54:23.312Z,78.30
2017-07-22T15:56:51.583Z,78.00
2017-07-22T15:59:19.047Z,78.00
2017-07-22T16:01:47.286Z,78.10
2017-07-22T16:04:14.852Z,78.10
2017-07-22T16:06:42.309Z,77.60
2017-07-22T16:09:09.781Z,77.30
2017-07-22T16:11:37.337Z,77.20
2017-07-22T16:14:04.793Z,77.00
2017-07-22T16:16:32.358Z,77.50
2017-07-22T16:18:59.812Z,76.20
2017-07-22T16:21:27.274Z,75.70
2017-07-22T16:23:54.817Z,75.90
2017-07-22T16:26:22.286Z,75.50
2017-07-22T16:28:49.836Z,75.10
2017-07-22T16:31:17.305Z,75.40
2017-07-22T16:33:44.862Z,76.10
2017-07-22T16:36:12.324Z,76.00
2017-07-22T16:38:40.537Z,75.50
2017-07-22T16:41:08.042Z,75.00
2017-07-22T16:43:35.505Z,74.60
2017-07-22T16:46:03.068Z,74.60
2017-07-22T16:48:30.609Z,74.50
2017-07-22T16:50:58.178Z,74.30
2017-07-22T16:53:25.632Z,73.60
2017-07-22T16:55:53.198Z,73.80
2017-07-22T16:58:21.470Z,71.60
2017-07-22T17:00:49.683Z,72.00
2017-07-22T17:03:18.022Z,72.00
2017-07-22T17:05:45.481Z,71.60
2017-07-22T17:08:13.034Z,71.10
2017-07-22T17:10:40.595Z,70.40
2017-07-22T17:13:08.140Z,70.20
2017-07-22T17:15:35.721Z,69.60
2017-07-22T17:18:03.952Z,69.40
2017-07-22T17:20:31.436Z,69.30
2017-07-22T17:22:58.898Z,68.90
2017-07-22T17:25:26.349Z,69.30
2017-07-22T17:27:53.910Z,68.70
2017-07-22T17:30:21.469Z,68.30
2017-07-22T17:32:49.034Z,68.60
2017-07-22T17:35:16.576Z,68.20
2017-07-22T17:37:44.026Z,67.90
2017-07-22T17:40:11.509Z,68.70
2017-07-22T17:42:38.960Z,69.10
2017-07-22T17:45:06.512Z,69.00
2017-07-22T17:47:33.969Z,70.00
2017-07-22T17:50:01.529Z,71.10
2017-07-22T17:52:28.980Z,69.90
2017-07-22T17:54:56.556Z,70.90
2017-07-22T17:57:24.015Z,71.20
2017-07-22T17:59:52.242Z,72.10
2017-07-22T18:02:19.712Z,71.50
2017-07-22T18:04:47.250Z,71.20
2017-07-22T18:07:14.697Z,71.40
2017-07-22T18:09:42.210Z,71.50
2017-07-22T18:12:09.767Z,71.20
2017-07-22T18:14:37.312Z,71.70
2017-07-22T18:17:04.882Z,71.20
2017-07-22T18:19:32.440Z,71.10
2017-07-22T18:22:00.002Z,71.70
2017-07-22T18:24:27.452Z,72.30
2017-07-22T18:26:55.004Z,72.50
2017-07-22T18:29:22.468Z,72.30
2017-07-22T18:31:50.021Z,72.40
2017-07-22T18:34:17.543Z,72.60
2017-07-22T18:36:45.052Z,72.50
2017-07-22T18:39:12.600Z,72.80
2017-07-22T18:41:40.148Z,73.00
2017-07-22T18:44:07.618Z,73.10
2017-07-22T18:46:35.172Z,73.70
2017-07-22T18:49:02.645Z,74.10
2017-07-22T18:51:30.864Z,75.20
2017-07-22T18:53:58.352Z,75.10
2017-07-22T18:56:25.804Z,74.80
2017-07-22T18:58:53.378Z,75.30
2017-07-22T19:01:20.852Z,75.60
2017-07-22T19:03:49.101Z,75.50
2017-07-22T19:06:16.671Z,75.50
2017-07-22T19:08:44.130Z,75.90
2017-07-22T19:11:11.581Z,76.00
2017-07-22T19:13:39.057Z,76.30
2017-07-22T19:16:07.324Z,76.70
2017-07-22T19:18:34.878Z,76.60
2017-07-22T19:21:02.434Z,77.00
2017-07-22T19:23:30.003Z,77.10
2017-07-22T19:25:58.266Z,78.20
2017-07-22T19:28:25.826Z,77.10
2017-07-22T19:30:53.385Z,77.20
2017-07-22T19:33:20.931Z,77.50
2017-07-22T19:35:48.398Z,78.10
2017-07-22T19:38:15.964Z,78.00
2017-07-22T19:40:43.518Z,78.20
2017-07-22T19:43:11.075Z,78.00
2017-07-22T19:45:39.349Z,78.40
2017-07-22T19:48:06.915Z,78.30
2017-07-22T19:50:34.466Z,78.10
2017-07-22T19:53:02.026Z,78.20
2017-07-22T19:55:29.582Z,78.20
2017-07-22T19:57:57.144Z,78.10
2017-07-22T20:00:24.688Z,78.10
2017-07-22T20:02:52.259Z,78.00
2017-07-22T20:05:19.817Z,78.00
2017-07-22T20:07:47.292Z,78.50
2017-07-22T20:10:15.522Z,79.20
2017-07-22T20:12:43.105Z,79.10
2017-07-22T20:15:10.560Z,79.00
2017-07-22T20:17:38.126Z,78.40
2017-07-22T20:20:05.672Z,78.60
2017-07-22T20:22:33.238Z,78.90
2017-07-22T20:25:01.452Z,78.70
2017-07-22T20:27:28.917Z,78.60
2017-07-22T20:29:56.429Z,79.70
2017-07-22T20:32:23.902Z,78.70
2017-07-22T20:34:52.161Z,79.00
2017-07-22T20:37:19.624Z,78.90
2017-07-22T20:39:47.085Z,79.60
2017-07-22T20:42:14.633Z,79.70
2017-07-22T20:44:42.193Z,79.70
2017-07-22T20:47:09.749Z,79.80
2017-07-22T20:49:37.200Z,80.00
2017-07-22T20:52:04.762Z,79.70
2017-07-22T20:54:32.323Z,79.70
2017-07-22T20:56:59.872Z,79.70
2017-07-22T20:59:27.441Z,79.40
2017-07-22T21:01:54.988Z,79.10
2017-07-22T21:04:22.562Z,79.70
2017-07-22T21:06:50.012Z,79.60
2017-07-22T21:09:17.586Z,79.70
2017-07-22T21:11:45.804Z,79.70
2017-07-22T21:14:13.306Z,79.60
2017-07-22T21:16:40.770Z,79.90
2017-07-22T21:19:08.316Z,79.50
2017-07-22T21:21:35.887Z,79.50
2017-07-22T21:24:04.169Z,79.80
2017-07-22T21:26:32.429Z,80.50
2017-07-22T21:28:59.894Z,79.70
2017-07-22T21:31:27.348Z,79.60
2017-07-22T21:33:54.906Z,79.90
2017-07-22T21:36:22.466Z,79.90
2017-07-22T21:38:50.022Z,79.40
2017-07-22T21:41:17.513Z,79.60
2017-07-22T21:43:45.029Z,79.80
2017-07-22T21:46:12.590Z,80.00
2017-07-22T21:48:40.150Z,80.00
2017-07-22T21:51:07.704Z,80.20
2017-07-22T21:53:35.270Z,80.30
2017-07-22T21:56:02.830Z,80.50
2017-07-22T21:58:30.376Z,80.50
2017-07-22T22:00:57.941Z,80.90
2017-07-22T22:03:25.515Z,80.80
2017-07-22T22:05:52.965Z,81.70
2017-07-22T22:08:20.439Z,80.90
2017-07-22T22:10:48.689Z,81.20
2017-07-22T22:13:16.287Z,81.10
2017-07-22T22:15:43.814Z,81.90
2017-07-22T22:18:11.375Z,81.30
2017-07-22T22:20:38.939Z,81.20
2017-07-22T22:23:06.401Z,81.00
2017-07-22T22:25:34.644Z,81.40
2017-07-22T22:28:02.227Z,81.30
2017-07-22T22:30:29.707Z,81.60
2017-07-22T22:32:57.242Z,81.90
2017-07-22T22:35:24.784Z,82.00
2017-07-22T22:37:52.357Z,82.00
2017-07-22T22:40:19.914Z,82.10
2017-07-22T22:42:47.469Z,82.20
2017-07-22T22:45:15.030Z,82.10
2017-07-22T22:47:42.482Z,82.30
2017-07-22T22:50:10.042Z,82.20
2017-07-22T22:52:37.593Z,82.00
2017-07-22T22:55:05.167Z,82.30
2017-07-22T22:57:32.616Z,82.40
2017-07-22T23:00:00.167Z,82.30
2017-07-22T23:02:27.734Z,82.40
2017-07-22T23:04:55.197Z,82.50
2017-07-22T23:07:23.442Z,83.60
2017-07-22T23:09:50.931Z,82.50
2017-07-22T23:12:19.185Z,81.80
2017-07-22T23:14:46.768Z,82.20
2017-07-22T23:17:15.006Z,83.10
2017-07-22T23:19:42.482Z,82.20
2017-07-22T23:22:09.940Z,82.30
2017-07-22T23:24:37.503Z,82.10
2017-07-22T23:27:05.118Z,82.10
2017-07-22T23:29:32.577Z,82.50
2017-07-22T23:32:00.032Z,82.30
2017-07-22T23:34:27.498Z,82.30
2017-07-22T23:36:54.999Z,82.20
2017-07-22T23:39:22.461Z,82.10
2017-07-22T23:41:50.708Z,82.20
2017-07-22T23:44:18.180Z,82.20
2017-07-22T23:46:45.724Z,82.20
2017-07-22T23:49:13.299Z,82.20
2017-07-22T23:51:40.858Z,82.50
2017-07-22T23:54:08.401Z,82.20
2017-07-22T23:56:35.970Z,82.40
2017-07-22T23:59:03.447Z,82.70
